Terminal Aerodrome Forecast
Issued by NWS Dodge City, KS

Home | Current Version | Previous Version | Graphics & Text | Print | Product List | Glossary Off
Versions: 1 2 3 4 5 6 7 8 9 10 11 12 13 14 15 16 17 18 19 20 21 22 23 24 25 26 27 28 29 30 31 32 33 34 35 36 37 38 39 40 41 42

000
FTUS43 KDDC 211120
TAFDDC
TAF
KDDC 211120Z 2112/2212 VRB05KT P6SM SCT200
     FM211400 14006KT P6SM OVC011
      TEMPO 2114/2116 5SM BR OVC008
     FM211800 18008KT P6SM OVC015
     FM212100 18008KT P6SM SCT020 SCT250
     FM220000 17007KT P6SM BKN250=

USA.gov is the U.S. government's official web portal to all federal, state and local government web resources and services.